Time;durP1;ratioP1;P1;durP2;ratioP2;P2;SDS_P1;SDS_P2;PMS_P1;PMS_P2;Temp;Humidity;BMP_temperature;BMP_pressure;BME280_temperature;BME280_humidity;BME280_pressure;Samples;Min_cycle;Max_cycle;Signal;HPM_P1;HPM_P2
2024/03/13 00:00:22;;;;;;;41.15;18.38;;;;;;;;;;5057484;28;20029;-56
2024/03/13 00:02:49;;;;;;;40.97;18.00;;;;;;;;;;5056682;28;20037;-57
2024/03/13 00:05:14;;;;;;;38.72;17.90;;;;;;;;;;5056539;28;20350;-59
2024/03/13 00:07:40;;;;;;;42.03;18.20;;;;;;;;;;5059105;28;20037;-58
2024/03/13 00:10:06;;;;;;;40.22;18.98;;;;;;;;;;5056253;28;20056;-59
2024/03/13 00:12:33;;;;;;;40.13;17.17;;;;;;;;;;5057316;28;20025;-60
2024/03/13 00:14:59;;;;;;;42.77;19.37;;;;;;;;;;5057518;28;20033;-57
2024/03/13 00:17:24;;;;;;;42.08;18.27;;;;;;;;;;5057772;28;20275;-57
2024/03/13 00:19:50;;;;;;;42.28;19.70;;;;;;;;;;5055986;28;20041;-58
2024/03/13 00:22:19;;;;;;;36.85;16.38;;;;;;;;;;5057317;28;20033;-58
2024/03/13 00:24:46;;;;;;;37.80;16.47;;;;;;;;;;5056001;28;20034;-57
2024/03/13 00:27:12;;;;;;;41.53;17.30;;;;;;;;;;5057123;28;20263;-59
2024/03/13 00:29:38;;;;;;;43.65;20.50;;;;;;;;;;5043585;28;20263;-60
2024/03/13 00:32:04;;;;;;;44.25;19.58;;;;;;;;;;5043771;28;20197;-58
2024/03/13 00:34:30;;;;;;;47.30;19.30;;;;;;;;;;5057498;28;20033;-57
2024/03/13 00:36:56;;;;;;;41.88;18.98;;;;;;;;;;5066597;28;20025;-58
2024/03/13 00:39:22;;;;;;;41.83;18.10;;;;;;;;;;5065095;28;20060;-58
2024/03/13 00:41:47;;;;;;;46.20;20.02;;;;;;;;;;5056979;28;20033;-58
2024/03/13 00:44:14;;;;;;;44.45;19.40;;;;;;;;;;5057159;28;20057;-61
2024/03/13 00:46:40;;;;;;;50.03;19.42;;;;;;;;;;5058148;28;20124;-57
2024/03/13 00:49:08;;;;;;;42.15;17.58;;;;;;;;;;5061955;28;20100;-58
2024/03/13 00:51:35;;;;;;;39.97;17.70;;;;;;;;;;5056559;28;20049;-59
2024/03/13 00:54:04;;;;;;;47.07;19.30;;;;;;;;;;5056504;28;20302;-58
2024/03/13 00:56:30;;;;;;;50.70;20.07;;;;;;;;;;5060456;28;20330;-59
2024/03/13 00:58:56;;;;;;;44.30;20.33;;;;;;;;;;5059376;28;20331;-56
2024/03/13 01:01:22;;;;;;;46.53;19.13;;;;;;;;;;5056969;28;20046;-54
2024/03/13 01:03:48;;;;;;;42.15;17.98;;;;;;;;;;5056641;28;20025;-58
2024/03/13 01:06:14;;;;;;;43.22;18.83;;;;;;;;;;5056553;28;20033;-55
2024/03/13 01:08:39;;;;;;;48.70;20.17;;;;;;;;;;5055727;28;20029;-58
2024/03/13 01:11:05;;;;;;;49.17;18.97;;;;;;;;;;5056494;28;20033;-55
2024/03/13 01:13:30;;;;;;;47.10;20.05;;;;;;;;;;5056821;28;20033;-58
2024/03/13 01:15:56;;;;;;;50.97;18.75;;;;;;;;;;5063206;28;20034;-57
2024/03/13 01:18:21;;;;;;;45.63;17.80;;;;;;;;;;5061109;28;20033;-58
2024/03/13 01:20:47;;;;;;;49.63;19.65;;;;;;;;;;5056175;28;20033;-58
2024/03/13 01:23:13;;;;;;;49.33;19.13;;;;;;;;;;5056301;28;20029;-57
2024/03/13 01:25:41;;;;;;;62.03;21.73;;;;;;;;;;5055756;28;20053;-58
2024/03/13 01:28:07;;;;;;;57.07;19.40;;;;;;;;;;5071552;28;20266;-57
2024/03/13 01:30:33;;;;;;;65.68;20.77;;;;;;;;;;5059704;28;20318;-57
2024/03/13 01:32:58;;;;;;;62.77;21.13;;;;;;;;;;5056435;28;20030;-60
2024/03/13 01:35:23;;;;;;;64.10;19.93;;;;;;;;;;5055662;28;20037;-58
2024/03/13 01:38:02;;;;;;;60.33;19.87;;;;;;;;;;5058331;28;20040;-57
2024/03/13 01:54:50;;;;;;;61.40;21.93;;;;;;;;;;5058133;28;20071;-55
2024/03/13 01:57:32;;;;;;;75.30;23.67;;;;;;;;;;5062805;28;20029;-57
2024/03/13 02:02:52;;;;;;;94.03;26.77;;;;;;;;;;5055693;28;20996;-54
2024/03/13 02:05:17;;;;;;;86.73;25.10;;;;;;;;;;5055172;28;20289;-58
2024/03/13 02:07:43;;;;;;;92.72;25.10;;;;;;;;;;5055475;28;20036;-58
2024/03/13 02:10:08;;;;;;;89.95;25.60;;;;;;;;;;5058692;28;20044;-57
2024/03/13 02:12:34;;;;;;;82.47;25.90;;;;;;;;;;5063039;28;20026;-58
2024/03/13 02:14:59;;;;;;;85.83;26.50;;;;;;;;;;5055559;28;20048;-56
2024/03/13 02:17:26;;;;;;;103.18;26.55;;;;;;;;;;5055446;28;20029;-57
2024/03/13 02:19:54;;;;;;;79.57;23.20;;;;;;;;;;5053255;28;20109;-59
2024/03/13 02:22:20;;;;;;;72.07;24.70;;;;;;;;;;5054602;28;20053;-57
2024/03/13 02:24:47;;;;;;;80.57;25.63;;;;;;;;;;5055216;28;20279;-58
2024/03/13 02:27:13;;;;;;;84.47;25.90;;;;;;;;;;5060487;28;20040;-56
2024/03/13 02:29:41;;;;;;;81.45;24.00;;;;;;;;;;5056440;28;20259;-59
2024/03/13 02:32:06;;;;;;;82.00;24.73;;;;;;;;;;5063926;28;20033;-57
2024/03/13 02:34:32;;;;;;;71.03;22.83;;;;;;;;;;5055188;28;20273;-57
2024/03/13 02:36:57;;;;;;;93.87;24.83;;;;;;;;;;5061921;28;20269;-58
2024/03/13 02:39:24;;;;;;;101.43;27.97;;;;;;;;;;5056865;28;20262;-56
2024/03/13 02:41:49;;;;;;;77.30;24.77;;;;;;;;;;5054506;28;20254;-58
2024/03/13 02:44:14;;;;;;;94.97;25.42;;;;;;;;;;5054841;28;20044;-58
2024/03/13 02:46:40;;;;;;;89.43;24.45;;;;;;;;;;5060815;28;20052;-58
2024/03/13 02:49:06;;;;;;;75.23;21.90;;;;;;;;;;5065879;28;20041;-56
2024/03/13 02:51:31;;;;;;;70.70;22.98;;;;;;;;;;5056367;28;20032;-57
2024/03/13 02:53:56;;;;;;;67.67;21.53;;;;;;;;;;5054774;28;20037;-58
2024/03/13 02:56:22;;;;;;;68.67;21.03;;;;;;;;;;5057277;28;20037;-55
2024/03/13 02:58:48;;;;;;;62.67;20.27;;;;;;;;;;5059496;28;20297;-58
2024/03/13 03:01:14;;;;;;;63.53;21.08;;;;;;;;;;5054270;28;20273;-57
2024/03/13 03:03:40;;;;;;;77.47;21.77;;;;;;;;;;5043265;28;20026;-56
2024/03/13 03:06:06;;;;;;;65.03;19.63;;;;;;;;;;5054537;28;20047;-58
2024/03/13 03:08:33;;;;;;;63.22;19.15;;;;;;;;;;5054582;28;20021;-58
2024/03/13 03:10:59;;;;;;;56.17;18.53;;;;;;;;;;5054626;28;20089;-56
2024/03/13 03:13:25;;;;;;;58.45;17.98;;;;;;;;;;5063271;28;20255;-58
2024/03/13 03:15:51;;;;;;;52.83;17.08;;;;;;;;;;5054295;28;20104;-58
2024/03/13 03:18:17;;;;;;;61.17;18.27;;;;;;;;;;5056132;28;20025;-56
2024/03/13 03:20:45;;;;;;;48.58;16.92;;;;;;;;;;5058650;28;20052;-57
2024/03/13 03:23:10;;;;;;;52.17;18.50;;;;;;;;;;5059094;28;20043;-58
2024/03/13 03:25:37;;;;;;;53.78;17.35;;;;;;;;;;5054068;28;20283;-58
2024/03/13 03:28:02;;;;;;;69.18;19.50;;;;;;;;;;5061610;28;20088;-57
2024/03/13 03:30:30;;;;;;;60.13;18.65;;;;;;;;;;5057839;28;20544;-56
2024/03/13 03:32:56;;;;;;;47.47;17.10;;;;;;;;;;5056309;28;20021;-56
2024/03/13 03:35:23;;;;;;;43.42;16.25;;;;;;;;;;5058313;28;20259;-54
2024/03/13 03:37:49;;;;;;;53.00;17.00;;;;;;;;;;5058179;28;20056;-57
2024/03/13 03:40:16;;;;;;;58.13;18.00;;;;;;;;;;5059107;28;20266;-55
2024/03/13 03:42:41;;;;;;;44.40;15.77;;;;;;;;;;5057971;28;20274;-56
2024/03/13 03:45:08;;;;;;;61.03;18.35;;;;;;;;;;5058045;28;20290;-56
2024/03/13 03:47:34;;;;;;;55.80;18.65;;;;;;;;;;5060569;28;20064;-58
2024/03/13 03:50:00;;;;;;;51.28;16.13;;;;;;;;;;5065807;28;20025;-58
2024/03/13 03:52:25;;;;;;;41.78;13.85;;;;;;;;;;5062996;28;20025;-56
2024/03/13 03:54:51;;;;;;;45.28;14.88;;;;;;;;;;5061334;28;20177;-57
2024/03/13 03:57:16;;;;;;;44.67;14.68;;;;;;;;;;5058209;28;20065;-57
2024/03/13 03:59:41;;;;;;;33.43;12.47;;;;;;;;;;5065711;28;20293;-59
2024/03/13 04:02:07;;;;;;;34.15;12.15;;;;;;;;;;5057825;28;20089;-58
2024/03/13 04:04:33;;;;;;;35.23;11.00;;;;;;;;;;5057520;28;20040;-57
2024/03/13 04:06:58;;;;;;;30.57;9.70;;;;;;;;;;5064931;28;20274;-59
2024/03/13 04:09:24;;;;;;;34.43;9.90;;;;;;;;;;5063385;28;20093;-53
2024/03/13 04:11:52;;;;;;;28.37;9.50;;;;;;;;;;5057638;28;20025;-57
2024/03/13 04:14:21;;;;;;;25.27;9.13;;;;;;;;;;5057346;28;20255;-56
2024/03/13 04:16:47;;;;;;;25.73;9.63;;;;;;;;;;5062823;28;20262;-58
2024/03/13 04:19:12;;;;;;;28.13;9.90;;;;;;;;;;5061670;28;20289;-58
2024/03/13 04:21:38;;;;;;;19.75;7.97;;;;;;;;;;5065678;28;20263;-57
2024/03/13 04:24:04;;;;;;;22.58;9.30;;;;;;;;;;5057287;28;20065;-58
2024/03/13 04:26:30;;;;;;;25.57;9.10;;;;;;;;;;5060205;28;20044;-58
2024/03/13 04:28:59;;;;;;;28.90;10.15;;;;;;;;;;5060651;28;20274;-59
2024/03/13 04:31:26;;;;;;;23.50;9.40;;;;;;;;;;5057377;28;20045;-57
2024/03/13 04:33:51;;;;;;;22.33;9.45;;;;;;;;;;5067408;28;20277;-59
2024/03/13 04:36:17;;;;;;;22.60;9.20;;;;;;;;;;5057767;28;20030;-56
2024/03/13 04:38:42;;;;;;;26.57;9.60;;;;;;;;;;5057257;28;20080;-59
2024/03/13 04:41:11;;;;;;;30.90;10.52;;;;;;;;;;5063582;28;20038;-58
2024/03/13 04:43:37;;;;;;;36.60;10.77;;;;;;;;;;5055561;28;20053;-59
2024/03/13 04:46:02;;;;;;;32.97;12.20;;;;;;;;;;5056921;28;20279;-59
2024/03/13 04:48:28;;;;;;;35.10;11.70;;;;;;;;;;5057283;28;20270;-59
2024/03/13 04:50:53;;;;;;;35.85;10.20;;;;;;;;;;5056850;28;20033;-59
2024/03/13 04:53:22;;;;;;;34.08;11.32;;;;;;;;;;5056621;28;20100;-56
2024/03/13 04:55:48;;;;;;;31.70;9.93;;;;;;;;;;5056672;28;20033;-58
2024/03/13 04:58:15;;;;;;;26.27;9.57;;;;;;;;;;5059652;28;20274;-58
2024/03/13 05:00:41;;;;;;;27.15;9.23;;;;;;;;;;5070794;28;20251;-59
2024/03/13 05:03:07;;;;;;;26.75;9.73;;;;;;;;;;5059722;28;20052;-58
2024/03/13 05:05:33;;;;;;;25.40;9.75;;;;;;;;;;5057377;28;20040;-55
2024/03/13 05:07:59;;;;;;;;;;;;;;;;;;5058713;28;20120;-60
2024/03/13 05:10:29;;;;;;;30.25;10.27;;;;;;;;;;5066085;28;19975;-58
2024/03/13 05:12:55;;;;;;;29.03;9.50;;;;;;;;;;5056711;28;20089;-59
2024/03/13 05:15:20;;;;;;;23.83;8.30;;;;;;;;;;5056384;28;20301;-57
2024/03/13 05:17:49;;;;;;;20.60;8.53;;;;;;;;;;5056468;28;20266;-59
2024/03/13 05:20:17;;;;;;;21.37;8.20;;;;;;;;;;5057745;28;20339;-57
2024/03/13 05:22:44;;;;;;;26.30;9.50;;;;;;;;;;5056178;28;20301;-59
2024/03/13 05:25:14;;;;;;;21.20;8.02;;;;;;;;;;5056249;28;20290;-57
2024/03/13 05:27:40;;;;;;;26.73;9.30;;;;;;;;;;5061332;28;20006;-60
2024/03/13 05:30:06;;;;;;;25.67;8.40;;;;;;;;;;5056339;28;20305;-58
2024/03/13 05:32:31;;;;;;;;;;;;;;;;;;5056883;28;20036;-58
2024/03/13 05:34:57;;;;;;;27.13;7.63;;;;;;;;;;5058279;28;19909;-59
2024/03/13 05:37:22;;;;;;;27.40;8.53;;;;;;;;;;5056205;28;20049;-59
2024/03/13 05:39:51;;;;;;;28.58;8.30;;;;;;;;;;5066286;28;20266;-58
2024/03/13 05:42:17;;;;;;;22.07;8.27;;;;;;;;;;5062830;28;20048;-58
2024/03/13 05:44:43;;;;;;;24.73;8.43;;;;;;;;;;5055601;28;20274;-60
2024/03/13 05:47:09;;;;;;;24.60;8.50;;;;;;;;;;5061728;28;20064;-59
2024/03/13 05:49:35;;;;;;;23.02;7.95;;;;;;;;;;5071029;28;20049;-59
2024/03/13 05:52:01;;;;;;;;;;;;;;;;;;5066832;28;20049;-60
2024/03/13 05:54:28;;;;;;;22.50;8.17;;;;;;;;;;5055602;28;19905;-58
2024/03/13 05:56:54;;;;;;;26.50;7.70;;;;;;;;;;5055321;28;20057;-57
2024/03/13 05:59:20;;;;;;;28.58;9.20;;;;;;;;;;5061221;28;20265;-59
2024/03/13 06:01:45;;;;;;;24.48;9.38;;;;;;;;;;5055527;28;20093;-59
2024/03/13 06:04:12;;;;;;;23.50;9.77;;;;;;;;;;5055478;28;20048;-58
2024/03/13 06:06:40;;;;;;;27.75;9.70;;;;;;;;;;5055683;28;20052;-59
2024/03/13 06:09:06;;;;;;;21.97;8.97;;;;;;;;;;5055359;28;20033;-59
2024/03/13 06:11:33;;;;;;;25.63;10.23;;;;;;;;;;5055685;28;20267;-59
2024/03/13 06:13:59;;;;;;;28.20;10.20;;;;;;;;;;5055325;28;20033;-60
2024/03/13 06:16:24;;;;;;;30.02;10.32;;;;;;;;;;5055474;28;20271;-59
2024/03/13 06:18:50;;;;;;;32.60;11.17;;;;;;;;;;5060463;28;20041;-59
2024/03/13 06:21:15;;;;;;;32.05;11.75;;;;;;;;;;5054418;28;20033;-59
2024/03/13 06:23:47;;;;;;;28.77;11.85;;;;;;;;;;5061106;28;20125;-59
2024/03/13 06:26:17;;;;;;;42.73;12.43;;;;;;;;;;5054877;28;20053;-57
2024/03/13 06:31:27;;;;;;;43.03;13.20;;;;;;;;;;5072197;28;20265;-59
2024/03/13 06:33:53;;;;;;;41.63;14.57;;;;;;;;;;5057838;28;20641;-59
2024/03/13 06:36:19;;;;;;;39.87;15.20;;;;;;;;;;5053979;28;20030;-57
2024/03/13 06:38:46;;;;;;;45.38;16.08;;;;;;;;;;5054982;28;20274;-58
2024/03/13 06:41:12;;;;;;;47.30;16.47;;;;;;;;;;5067915;28;20056;-58
2024/03/13 06:43:38;;;;;;;57.53;17.10;;;;;;;;;;5069969;28;20258;-59
2024/03/13 06:46:05;;;;;;;50.22;17.20;;;;;;;;;;5054338;28;20097;-57
2024/03/13 06:48:31;;;;;;;59.27;18.37;;;;;;;;;;5053361;28;20094;-59
2024/03/13 06:50:57;;;;;;;48.42;17.33;;;;;;;;;;5056422;28;20266;-59
2024/03/13 06:53:22;;;;;;;51.10;18.07;;;;;;;;;;5052310;28;20037;-59
2024/03/13 06:55:48;;;;;;;58.90;19.13;;;;;;;;;;5054386;28;20038;-57
2024/03/13 06:58:13;;;;;;;68.30;21.05;;;;;;;;;;5053433;28;20033;-58
2024/03/13 07:00:40;;;;;;;70.57;20.17;;;;;;;;;;5058641;28;20037;-59
2024/03/13 07:03:07;;;;;;;74.87;22.00;;;;;;;;;;5052936;28;20297;-59
2024/03/13 07:05:32;;;;;;;71.80;22.10;;;;;;;;;;5049923;28;20287;-56
2024/03/13 07:07:58;;;;;;;66.00;18.97;;;;;;;;;;5057236;28;20034;-58
2024/03/13 07:10:23;;;;;;;63.67;22.05;;;;;;;;;;5054242;28;20289;-59
2024/03/13 07:12:49;;;;;;;57.78;19.58;;;;;;;;;;5054673;28;20033;-58
2024/03/13 07:15:15;;;;;;;66.45;19.75;;;;;;;;;;5052362;28;20033;-59
2024/03/13 07:17:45;;;;;;;68.18;20.65;;;;;;;;;;5055318;28;20048;-59
2024/03/13 07:20:10;;;;;;;67.03;21.30;;;;;;;;;;5054066;28;20037;-58
2024/03/13 07:22:38;;;;;;;77.28;21.83;;;;;;;;;;5051663;28;20282;-58
2024/03/13 07:25:07;;;;;;;65.70;20.90;;;;;;;;;;5054386;28;20037;-60
2024/03/13 07:27:32;;;;;;;67.97;22.17;;;;;;;;;;5052392;28;20274;-60
2024/03/13 07:29:58;;;;;;;68.97;20.77;;;;;;;;;;5063893;28;20286;-57
2024/03/13 07:32:23;;;;;;;69.38;20.15;;;;;;;;;;5056596;28;20273;-57
2024/03/13 07:34:49;;;;;;;63.80;20.92;;;;;;;;;;5061339;28;20040;-59
2024/03/13 07:37:14;;;;;;;71.32;21.38;;;;;;;;;;5048744;28;20028;-59
2024/03/13 07:39:39;;;;;;;51.97;19.27;;;;;;;;;;5057544;28;20034;-60
2024/03/13 07:42:06;;;;;;;59.67;18.17;;;;;;;;;;5048624;28;20060;-58
2024/03/13 07:44:32;;;;;;;65.30;20.17;;;;;;;;;;5053939;28;20034;-58
2024/03/13 07:46:58;;;;;;;54.27;18.33;;;;;;;;;;5064022;28;20277;-58
2024/03/13 07:49:25;;;;;;;62.65;19.35;;;;;;;;;;5058267;28;20250;-58
2024/03/13 07:51:51;;;;;;;55.87;17.50;;;;;;;;;;5045447;28;20067;-58
2024/03/13 07:54:18;;;;;;;59.67;18.27;;;;;;;;;;5054102;28;20267;-58
2024/03/13 07:56:44;;;;;;;49.80;17.83;;;;;;;;;;5051121;28;20029;-60
2024/03/13 07:59:10;;;;;;;73.03;19.83;;;;;;;;;;5063168;28;20293;-59
2024/03/13 08:01:36;;;;;;;;;;;;;;;;;;5050972;28;20037;-60
2024/03/13 08:04:01;;;;;;;50.47;16.13;;;;;;;;;;5049576;28;19909;-59
2024/03/13 08:06:28;;;;;;;46.70;15.07;;;;;;;;;;5055202;28;20042;-59
2024/03/13 08:08:53;;;;;;;48.33;15.73;;;;;;;;;;5053795;28;20044;-60
2024/03/13 08:11:18;;;;;;;46.00;16.38;;;;;;;;;;5049824;28;20029;-59
2024/03/13 08:13:44;;;;;;;45.60;15.52;;;;;;;;;;5045768;28;20089;-60
2024/03/13 08:16:09;;;;;;;50.33;15.03;;;;;;;;;;5053545;28;20068;-60
2024/03/13 08:18:35;;;;;;;47.80;15.25;;;;;;;;;;5065788;28;20299;-59
2024/03/13 08:21:00;;;;;;;42.90;15.07;;;;;;;;;;5057019;28;20065;-60
2024/03/13 08:23:25;;;;;;;46.53;14.23;;;;;;;;;;5064301;28;20409;-60
2024/03/13 08:25:51;;;;;;;44.20;13.17;;;;;;;;;;5054925;28;20037;-57
2024/03/13 08:28:16;;;;;;;41.05;14.55;;;;;;;;;;5057438;28;20045;-60
2024/03/13 08:30:43;;;;;;;37.47;13.13;;;;;;;;;;5055914;28;20032;-58
2024/03/13 08:33:09;;;;;;;49.63;13.32;;;;;;;;;;5056059;28;20029;-60
2024/03/13 08:35:37;;;;;;;43.40;14.13;;;;;;;;;;5056783;28;20029;-60
2024/03/13 08:38:03;;;;;;;33.37;11.73;;;;;;;;;;5063421;28;20258;-60
2024/03/13 08:40:28;;;;;;;34.85;11.80;;;;;;;;;;5061487;28;20255;-59
2024/03/13 08:42:55;;;;;;;32.10;10.57;;;;;;;;;;5048727;28;20026;-60
2024/03/13 08:45:21;;;;;;;33.37;10.43;;;;;;;;;;5056798;28;20286;-59
2024/03/13 08:47:47;;;;;;;28.97;9.80;;;;;;;;;;5064453;28;20258;-62
2024/03/13 08:50:15;;;;;;;35.50;11.77;;;;;;;;;;5062001;28;20279;-58
2024/03/13 08:52:42;;;;;;;43.23;12.60;;;;;;;;;;5048511;28;20271;-58
2024/03/13 08:55:09;;;;;;;49.73;13.67;;;;;;;;;;5067776;28;20271;-59
2024/03/13 08:57:35;;;;;;;46.03;12.90;;;;;;;;;;5050595;28;20328;-60
2024/03/13 09:00:01;;;;;;;48.17;12.57;;;;;;;;;;5057995;28;20737;-61
2024/03/13 09:02:26;;;;;;;48.78;13.90;;;;;;;;;;5050279;28;20021;-59
2024/03/13 09:04:53;;;;;;;57.27;14.23;;;;;;;;;;5055024;28;20056;-59
2024/03/13 09:07:18;;;;;;;50.80;13.93;;;;;;;;;;5048506;28;20057;-59
2024/03/13 09:09:44;;;;;;;49.65;15.10;;;;;;;;;;5055745;28;20281;-59
2024/03/13 09:12:13;;;;;;;44.60;13.87;;;;;;;;;;5056044;28;20029;-59
2024/03/13 09:14:39;;;;;;;53.07;15.37;;;;;;;;;;5056290;28;20049;-58
2024/03/13 09:17:08;;;;;;;44.73;12.50;;;;;;;;;;5048584;28;20279;-58
2024/03/13 09:19:34;;;;;;;49.17;14.87;;;;;;;;;;5059861;28;20270;-60
2024/03/13 09:21:59;;;;;;;45.57;15.03;;;;;;;;;;5053439;28;20638;-61
2024/03/13 09:24:25;;;;;;;40.53;13.02;;;;;;;;;;5056500;28;20263;-59
2024/03/13 09:26:51;;;;;;;46.17;14.57;;;;;;;;;;5056720;28;20124;-58
2024/03/13 09:29:17;;;;;;;44.60;13.25;;;;;;;;;;5066306;28;20032;-59
2024/03/13 09:31:43;;;;;;;49.58;15.50;;;;;;;;;;5061555;28;20040;-59
2024/03/13 09:34:10;;;;;;;49.67;15.80;;;;;;;;;;5055990;28;20037;-59
2024/03/13 09:36:37;;;;;;;53.73;15.63;;;;;;;;;;5049693;28;20048;-61
2024/03/13 09:39:06;;;;;;;52.47;16.53;;;;;;;;;;5055045;28;20348;-61
2024/03/13 09:41:32;;;;;;;60.67;16.00;;;;;;;;;;5042108;28;20356;-58
2024/03/13 09:44:01;;;;;;;50.58;17.05;;;;;;;;;;5043483;28;20271;-59
2024/03/13 09:46:28;;;;;;;59.47;17.50;;;;;;;;;;5049140;28;20049;-59
2024/03/13 09:48:54;;;;;;;;;;;;;;;;;;5054246;28;20332;-59
2024/03/13 09:51:21;;;;;;;64.17;20.03;;;;;;;;;;5044477;28;20229;-60
2024/03/13 09:53:46;;;;;;;81.50;22.17;;;;;;;;;;5042476;28;20029;-61
2024/03/13 09:56:13;;;;;;;86.28;21.92;;;;;;;;;;5057612;28;20305;-57
2024/03/13 09:58:43;;;;;;;83.93;22.40;;;;;;;;;;5061469;28;20125;-61
2024/03/13 10:01:09;;;;;;;75.73;21.10;;;;;;;;;;5055976;28;20258;-60
2024/03/13 10:03:35;;;;;;;87.90;22.52;;;;;;;;;;5055273;28;20267;-59
2024/03/13 10:06:05;;;;;;;70.82;23.15;;;;;;;;;;5070318;28;20100;-59
2024/03/13 10:08:32;;;;;;;77.57;22.00;;;;;;;;;;5058539;28;20037;-59
2024/03/13 10:11:00;;;;;;;77.83;21.77;;;;;;;;;;5056152;28;20294;-60
2024/03/13 10:13:27;;;;;;;80.50;21.07;;;;;;;;;;5055227;28;20263;-59
2024/03/13 10:15:53;;;;;;;68.67;21.77;;;;;;;;;;5054822;28;20263;-55
2024/03/13 10:18:19;;;;;;;85.27;20.93;;;;;;;;;;5058165;28;20284;-58
2024/03/13 10:21:03;;;;;;;67.07;22.38;;;;;;;;;;5058898;28;20261;-59
2024/03/13 10:23:29;;;;;;;69.13;20.63;;;;;;;;;;5054777;28;20030;-57
2024/03/13 10:25:56;;;;;;;80.40;22.88;;;;;;;;;;5058447;28;20342;-56
2024/03/13 10:28:23;;;;;;;64.73;21.70;;;;;;;;;;5057581;28;20030;-56
2024/03/13 10:30:57;;;;;;;81.80;22.33;;;;;;;;;;5060818;28;20247;-58
2024/03/13 10:33:22;;;;;;;71.93;22.00;;;;;;;;;;5050423;28;20266;-58
2024/03/13 10:35:48;;;;;;;74.10;22.57;;;;;;;;;;5050665;28;20358;-58
2024/03/13 10:38:14;;;;;;;68.32;20.83;;;;;;;;;;5056071;28;20033;-56
2024/03/13 10:40:40;;;;;;;69.28;22.50;;;;;;;;;;5056503;28;20100;-57
2024/03/13 10:43:11;;;;;;;66.18;22.60;;;;;;;;;;5052360;28;20033;-57
2024/03/13 10:45:38;;;;;;;59.30;21.63;;;;;;;;;;5051511;28;20033;-58
2024/03/13 10:48:10;;;;;;;60.60;20.43;;;;;;;;;;5052308;28;20259;-55
2024/03/13 10:50:36;;;;;;;54.67;20.83;;;;;;;;;;5052715;28;20323;-58
2024/03/13 10:53:02;;;;;;;63.13;20.83;;;;;;;;;;5052074;28;20266;-59
2024/03/13 10:55:28;;;;;;;57.07;21.23;;;;;;;;;;5056059;28;20030;-54
2024/03/13 10:57:53;;;;;;;56.27;19.87;;;;;;;;;;5058473;28;20356;-57
2024/03/13 11:00:21;;;;;;;51.27;17.77;;;;;;;;;;5056233;28;20334;-55
2024/03/13 11:02:49;;;;;;;60.17;18.20;;;;;;;;;;5054683;28;20040;-58
2024/03/13 11:05:15;;;;;;;45.10;17.93;;;;;;;;;;5054128;28;20282;-57
2024/03/13 11:07:40;;;;;;;49.93;17.60;;;;;;;;;;5053404;28;20274;-56
2024/03/13 11:10:10;;;;;;;50.80;19.30;;;;;;;;;;5052537;28;20266;-59
2024/03/13 11:12:37;;;;;;;43.67;19.13;;;;;;;;;;5052577;28;20017;-56
2024/03/13 11:15:05;;;;;;;49.57;19.90;;;;;;;;;;5055508;28;20290;-57
2024/03/13 11:17:31;;;;;;;50.57;18.83;;;;;;;;;;5052292;28;20254;-56
2024/03/13 11:20:07;;;;;;;53.00;20.63;;;;;;;;;;5053902;28;20369;-56
2024/03/13 11:22:34;;;;;;;45.90;18.60;;;;;;;;;;5050839;28;20029;-57
2024/03/13 11:25:00;;;;;;;;;;;;;;;;;;5052023;28;20290;-57
2024/03/13 11:27:26;;;;;;;42.57;17.87;;;;;;;;;;5049922;28;19917;-57
2024/03/13 11:29:54;;;;;;;51.30;19.95;;;;;;;;;;5053503;28;20288;-56
2024/03/13 11:32:22;;;;;;;51.23;17.87;;;;;;;;;;5052825;28;20025;-57
2024/03/13 11:34:50;;;;;;;38.07;17.97;;;;;;;;;;5053534;28;20278;-58
2024/03/13 11:37:15;;;;;;;33.93;15.87;;;;;;;;;;5052679;28;20293;-57
2024/03/13 11:39:42;;;;;;;39.65;15.40;;;;;;;;;;5051330;28;20266;-58
2024/03/13 11:42:13;;;;;;;42.63;16.07;;;;;;;;;;5052289;28;20045;-57
2024/03/13 11:44:49;;;;;;;34.83;14.07;;;;;;;;;;5053712;28;20319;-57
2024/03/13 11:47:16;;;;;;;31.30;11.30;;;;;;;;;;5052730;28;20266;-54
2024/03/13 11:49:42;;;;;;;22.43;9.50;;;;;;;;;;5052009;28;20269;-57
2024/03/13 11:52:14;;;;;;;30.58;9.73;;;;;;;;;;5050598;28;20267;-56
2024/03/13 11:54:44;;;;;;;28.30;10.20;;;;;;;;;;5057008;28;20048;-55
2024/03/13 11:57:14;;;;;;;33.77;9.43;;;;;;;;;;5054047;28;20342;-58
2024/03/13 11:59:40;;;;;;;25.57;9.23;;;;;;;;;;5053508;28;20277;-55
2024/03/13 12:02:26;;;;;;;27.33;8.88;;;;;;;;;;5057707;28;20259;-56
2024/03/13 12:04:51;;;;;;;23.77;10.27;;;;;;;;;;5056113;28;20100;-58
2024/03/13 12:07:17;;;;;;;25.77;12.38;;;;;;;;;;5056239;28;20259;-57
2024/03/13 12:09:43;;;;;;;29.58;14.95;;;;;;;;;;5058963;28;20043;-56
2024/03/13 12:12:13;;;;;;;33.92;12.57;;;;;;;;;;5056332;28;20085;-55
2024/03/13 12:14:38;;;;;;;23.93;11.07;;;;;;;;;;5056792;28;20021;-56
2024/03/13 12:17:05;;;;;;;27.45;11.07;;;;;;;;;;5054831;28;20262;-57
2024/03/13 12:19:30;;;;;;;;;;;;;;;;;;5055566;28;20093;-54
2024/03/13 12:22:00;;;;;;;22.73;10.57;;;;;;;;;;5054484;28;19917;-57
2024/03/13 12:24:27;;;;;;;24.67;11.67;;;;;;;;;;5054176;28;20051;-58
2024/03/13 12:26:52;;;;;;;27.90;11.27;;;;;;;;;;5053491;28;20286;-58
2024/03/13 12:29:18;;;;;;;25.02;11.60;;;;;;;;;;5055056;28;20128;-58
2024/03/13 12:31:43;;;;;;;30.83;12.93;;;;;;;;;;5057512;28;20026;-55
2024/03/13 12:34:10;;;;;;;38.42;12.45;;;;;;;;;;5054971;28;20033;-55
2024/03/13 12:36:43;;;;;;;35.53;12.77;;;;;;;;;;5053132;28;20109;-56
2024/03/13 12:39:10;;;;;;;38.93;14.40;;;;;;;;;;5057562;28;20032;-59
2024/03/13 12:41:36;;;;;;;28.17;15.40;;;;;;;;;;5053916;28;20255;-56
2024/03/13 12:44:03;;;;;;;30.33;12.63;;;;;;;;;;5052676;28;20309;-56
2024/03/13 12:46:29;;;;;;;33.83;14.60;;;;;;;;;;5055143;28;20041;-57
2024/03/13 12:48:55;;;;;;;25.38;12.52;;;;;;;;;;5052757;28;20255;-57
2024/03/13 12:51:20;;;;;;;24.58;12.02;;;;;;;;;;5057618;28;20054;-55
2024/03/13 12:53:46;;;;;;;26.40;12.50;;;;;;;;;;5054343;28;20037;-55
2024/03/13 12:56:12;;;;;;;29.38;11.38;;;;;;;;;;5052325;28;20056;-58
2024/03/13 12:58:37;;;;;;;29.08;11.45;;;;;;;;;;5052676;28;20117;-58
2024/03/13 13:01:04;;;;;;;22.37;11.17;;;;;;;;;;5051938;28;20041;-58
2024/03/13 13:03:33;;;;;;;21.90;11.20;;;;;;;;;;5053341;28;20136;-55
2024/03/13 13:05:59;;;;;;;29.10;10.13;;;;;;;;;;5050802;28;20306;-55
2024/03/13 13:08:26;;;;;;;27.30;10.13;;;;;;;;;;5052009;28;20026;-58
2024/03/13 13:10:51;;;;;;;28.58;9.57;;;;;;;;;;5048367;28;20022;-55
2024/03/13 13:13:17;;;;;;;22.25;8.52;;;;;;;;;;5050842;28;20044;-57
2024/03/13 13:15:45;;;;;;;17.90;8.40;;;;;;;;;;5051869;28;20029;-57
2024/03/13 13:18:10;;;;;;;25.00;8.97;;;;;;;;;;5051706;28;20043;-58
2024/03/13 13:20:35;;;;;;;20.20;8.43;;;;;;;;;;5051063;28;20271;-56
2024/03/13 13:23:03;;;;;;;19.07;6.73;;;;;;;;;;5048707;28;20037;-54
2024/03/13 13:25:28;;;;;;;19.07;8.70;;;;;;;;;;5049855;28;20049;-55
2024/03/13 13:27:57;;;;;;;20.60;8.93;;;;;;;;;;5052768;28;20263;-56
2024/03/13 13:30:23;;;;;;;23.23;8.03;;;;;;;;;;5051738;28;20026;-55
2024/03/13 13:32:50;;;;;;;18.17;8.50;;;;;;;;;;5051042;28;20254;-56
2024/03/13 13:35:16;;;;;;;18.57;7.73;;;;;;;;;;5050210;28;20037;-56
2024/03/13 13:37:42;;;;;;;18.55;7.10;;;;;;;;;;5049371;28;20288;-55
2024/03/13 13:42:40;;;;;;;19.97;7.47;;;;;;;;;;5050501;28;20044;-57
2024/03/13 13:45:05;;;;;;;18.70;6.47;;;;;;;;;;5050224;28;20287;-57
2024/03/13 13:47:31;;;;;;;16.33;7.43;;;;;;;;;;5050931;28;20037;-57
2024/03/13 13:49:57;;;;;;;17.77;6.50;;;;;;;;;;5049626;28;20029;-55
2024/03/13 13:52:23;;;;;;;11.13;4.57;;;;;;;;;;5050695;28;20043;-55
2024/03/13 13:54:49;;;;;;;11.15;3.88;;;;;;;;;;5050234;28;20045;-58
2024/03/13 13:57:15;;;;;;;11.50;4.22;;;;;;;;;;5050139;28;20033;-55
2024/03/13 13:59:42;;;;;;;12.60;4.22;;;;;;;;;;5051409;28;20025;-56
2024/03/13 14:02:11;;;;;;;10.90;3.57;;;;;;;;;;5049780;28;20068;-54
2024/03/13 14:04:36;;;;;;;12.23;3.67;;;;;;;;;;5050500;28;20021;-55
2024/03/13 14:07:02;;;;;;;8.55;4.28;;;;;;;;;;5051599;28;20037;-57
2024/03/13 14:09:29;;;;;;;10.43;4.18;;;;;;;;;;5048910;28;20089;-58
2024/03/13 14:11:55;;;;;;;8.33;3.70;;;;;;;;;;5048676;28;20026;-58
2024/03/13 14:14:20;;;;;;;11.43;3.30;;;;;;;;;;5048187;28;20036;-56
2024/03/13 14:16:46;;;;;;;13.93;3.47;;;;;;;;;;5051166;28;20048;-56
2024/03/13 14:19:12;;;;;;;8.18;4.10;;;;;;;;;;5051859;28;20105;-55
2024/03/13 14:21:39;;;;;;;10.15;3.42;;;;;;;;;;5049785;28;20048;-55
2024/03/13 14:24:06;;;;;;;10.63;4.03;;;;;;;;;;5050783;28;20725;-58
2024/03/13 14:26:31;;;;;;;15.63;5.30;;;;;;;;;;5051780;28;20100;-59
2024/03/13 14:28:57;;;;;;;6.73;3.97;;;;;;;;;;5055345;28;20038;-55
2024/03/13 14:31:22;;;;;;;12.27;4.13;;;;;;;;;;5052339;28;20033;-55
2024/03/13 14:33:48;;;;;;;7.43;4.50;;;;;;;;;;5053211;28;20033;-56
2024/03/13 14:36:13;;;;;;;9.30;4.85;;;;;;;;;;5053814;28;20060;-57
2024/03/13 14:38:40;;;;;;;13.37;5.67;;;;;;;;;;5049645;28;20072;-56
2024/03/13 14:41:12;;;;;;;9.13;4.90;;;;;;;;;;5053399;28;20267;-54